sensor_id;sensor_type;location;lat;lon;timestamp;P1;durP1;ratioP1;P2;durP2;ratioP2
19167;SDS011;9716;53.114;18.040;2022-11-02T00:00:36;24.73;;;14.90;;
19167;SDS011;9716;53.114;18.040;2022-11-02T00:03:27;34.10;;;16.30;;
19167;SDS011;9716;53.114;18.040;2022-11-02T00:05:57;35.92;;;15.45;;
19167;SDS011;9716;53.114;18.040;2022-11-02T00:08:25;27.50;;;14.23;;
19167;SDS011;9716;53.114;18.040;2022-11-02T00:10:54;31.70;;;15.82;;
19167;SDS011;9716;53.114;18.040;2022-11-02T00:13:22;35.20;;;14.52;;
19167;SDS011;9716;53.114;18.040;2022-11-02T00:15:51;29.73;;;14.50;;
19167;SDS011;9716;53.114;18.040;2022-11-02T00:18:19;32.38;;;13.88;;
19167;SDS011;9716;53.114;18.040;2022-11-02T00:20:48;28.92;;;13.70;;
19167;SDS011;9716;53.114;18.040;2022-11-02T00:23:18;27.98;;;14.07;;
19167;SDS011;9716;53.114;18.040;2022-11-02T00:25:47;31.20;;;13.98;;
19167;SDS011;9716;53.114;18.040;2022-11-02T00:28:19;30.35;;;14.43;;
19167;SDS011;9716;53.114;18.040;2022-11-02T00:30:48;27.23;;;14.55;;
19167;SDS011;9716;53.114;18.040;2022-11-02T00:33:16;31.05;;;14.43;;
19167;SDS011;9716;53.114;18.040;2022-11-02T00:35:45;28.15;;;14.45;;
19167;SDS011;9716;53.114;18.040;2022-11-02T00:38:14;29.52;;;13.45;;
19167;SDS011;9716;53.114;18.040;2022-11-02T00:40:43;26.95;;;13.85;;
19167;SDS011;9716;53.114;18.040;2022-11-02T00:43:12;27.80;;;14.15;;
19167;SDS011;9716;53.114;18.040;2022-11-02T00:45:40;27.75;;;14.63;;
19167;SDS011;9716;53.114;18.040;2022-11-02T00:48:09;33.85;;;14.20;;
19167;SDS011;9716;53.114;18.040;2022-11-02T00:50:38;22.00;;;13.63;;
19167;SDS011;9716;53.114;18.040;2022-11-02T00:53:06;33.85;;;14.50;;
19167;SDS011;9716;53.114;18.040;2022-11-02T00:55:35;22.00;;;12.95;;
19167;SDS011;9716;53.114;18.040;2022-11-02T00:58:04;26.92;;;13.90;;
19167;SDS011;9716;53.114;18.040;2022-11-02T01:00:33;25.30;;;12.90;;
19167;SDS011;9716;53.114;18.040;2022-11-02T01:03:02;26.08;;;13.18;;
19167;SDS011;9716;53.114;18.040;2022-11-02T01:05:30;30.35;;;12.18;;
19167;SDS011;9716;53.114;18.040;2022-11-02T01:07:59;24.00;;;13.80;;
19167;SDS011;9716;53.114;18.040;2022-11-02T01:10:28;27.83;;;13.38;;
19167;SDS011;9716;53.114;18.040;2022-11-02T01:12:56;25.98;;;12.65;;
19167;SDS011;9716;53.114;18.040;2022-11-02T01:15:27;29.13;;;14.70;;
19167;SDS011;9716;53.114;18.040;2022-11-02T01:17:55;27.15;;;11.73;;
19167;SDS011;9716;53.114;18.040;2022-11-02T01:20:23;25.15;;;13.65;;
19167;SDS011;9716;53.114;18.040;2022-11-02T01:22:52;32.40;;;13.93;;
19167;SDS011;9716;53.114;18.040;2022-11-02T01:25:20;29.05;;;13.27;;
19167;SDS011;9716;53.114;18.040;2022-11-02T01:27:49;26.20;;;12.55;;
19167;SDS011;9716;53.114;18.040;2022-11-02T01:30:17;31.10;;;13.35;;
19167;SDS011;9716;53.114;18.040;2022-11-02T01:32:47;23.92;;;12.23;;
19167;SDS011;9716;53.114;18.040;2022-11-02T01:35:16;20.85;;;11.77;;
19167;SDS011;9716;53.114;18.040;2022-11-02T01:37:44;20.38;;;11.90;;
19167;SDS011;9716;53.114;18.040;2022-11-02T01:40:13;25.42;;;13.18;;
19167;SDS011;9716;53.114;18.040;2022-11-02T01:42:41;33.67;;;12.23;;
19167;SDS011;9716;53.114;18.040;2022-11-02T01:45:10;31.42;;;12.18;;
19167;SDS011;9716;53.114;18.040;2022-11-02T01:47:41;28.15;;;12.68;;
19167;SDS011;9716;53.114;18.040;2022-11-02T01:50:15;29.20;;;13.15;;
19167;SDS011;9716;53.114;18.040;2022-11-02T01:52:47;24.73;;;12.23;;
19167;SDS011;9716;53.114;18.040;2022-11-02T01:55:16;19.80;;;10.55;;
19167;SDS011;9716;53.114;18.040;2022-11-02T01:57:47;27.10;;;12.05;;
19167;SDS011;9716;53.114;18.040;2022-11-02T02:00:20;17.48;;;10.23;;
19167;SDS011;9716;53.114;18.040;2022-11-02T02:02:50;23.67;;;12.43;;
19167;SDS011;9716;53.114;18.040;2022-11-02T02:05:24;26.30;;;12.05;;
19167;SDS011;9716;53.114;18.040;2022-11-02T02:07:53;26.83;;;12.20;;
19167;SDS011;9716;53.114;18.040;2022-11-02T02:10:23;22.90;;;12.18;;
19167;SDS011;9716;53.114;18.040;2022-11-02T02:12:51;33.80;;;13.85;;
19167;SDS011;9716;53.114;18.040;2022-11-02T02:15:20;31.08;;;12.00;;
19167;SDS011;9716;53.114;18.040;2022-11-02T02:17:53;34.08;;;11.25;;
19167;SDS011;9716;53.114;18.040;2022-11-02T02:20:38;25.00;;;11.45;;
19167;SDS011;9716;53.114;18.040;2022-11-02T02:23:34;21.35;;;10.50;;
19167;SDS011;9716;53.114;18.040;2022-11-02T02:29:28;26.75;;;11.00;;
19167;SDS011;9716;53.114;18.040;2022-11-02T02:32:05;28.42;;;11.20;;
19167;SDS011;9716;53.114;18.040;2022-11-02T02:34:42;30.00;;;13.07;;
19167;SDS011;9716;53.114;18.040;2022-11-02T02:37:17;33.10;;;11.63;;
19167;SDS011;9716;53.114;18.040;2022-11-02T02:39:49;22.52;;;10.95;;
19167;SDS011;9716;53.114;18.040;2022-11-02T02:42:24;28.85;;;12.40;;
19167;SDS011;9716;53.114;18.040;2022-11-02T02:45:00;28.45;;;12.75;;
19167;SDS011;9716;53.114;18.040;2022-11-02T02:47:39;26.90;;;11.65;;
19167;SDS011;9716;53.114;18.040;2022-11-02T02:50:12;22.85;;;11.32;;
19167;SDS011;9716;53.114;18.040;2022-11-02T02:52:44;31.98;;;12.23;;
19167;SDS011;9716;53.114;18.040;2022-11-02T02:55:17;21.85;;;11.25;;
19167;SDS011;9716;53.114;18.040;2022-11-02T02:57:48;25.20;;;11.70;;
19167;SDS011;9716;53.114;18.040;2022-11-02T03:00:20;28.65;;;12.90;;
19167;SDS011;9716;53.114;18.040;2022-11-02T03:02:49;29.70;;;11.45;;
19167;SDS011;9716;53.114;18.040;2022-11-02T03:05:28;22.27;;;10.40;;
19167;SDS011;9716;53.114;18.040;2022-11-02T03:08:00;22.40;;;10.07;;
19167;SDS011;9716;53.114;18.040;2022-11-02T03:10:33;24.60;;;11.93;;
19167;SDS011;9716;53.114;18.040;2022-11-02T03:13:12;26.17;;;12.15;;
19167;SDS011;9716;53.114;18.040;2022-11-02T03:15:50;28.05;;;12.93;;
19167;SDS011;9716;53.114;18.040;2022-11-02T03:18:36;25.10;;;12.05;;
19167;SDS011;9716;53.114;18.040;2022-11-02T03:21:14;28.73;;;12.50;;
19167;SDS011;9716;53.114;18.040;2022-11-02T03:23:53;20.63;;;10.18;;
19167;SDS011;9716;53.114;18.040;2022-11-02T03:26:26;20.58;;;10.45;;
19167;SDS011;9716;53.114;18.040;2022-11-02T03:29:02;25.23;;;11.85;;
19167;SDS011;9716;53.114;18.040;2022-11-02T03:31:37;35.17;;;12.38;;
19167;SDS011;9716;53.114;18.040;2022-11-02T03:34:15;21.23;;;10.93;;
19167;SDS011;9716;53.114;18.040;2022-11-02T03:36:50;29.27;;;11.80;;
19167;SDS011;9716;53.114;18.040;2022-11-02T03:39:27;23.38;;;10.70;;
19167;SDS011;9716;53.114;18.040;2022-11-02T03:42:00;27.40;;;12.40;;
19167;SDS011;9716;53.114;18.040;2022-11-02T03:44:32;21.15;;;10.50;;
19167;SDS011;9716;53.114;18.040;2022-11-02T03:47:06;26.48;;;12.70;;
19167;SDS011;9716;53.114;18.040;2022-11-02T03:49:38;21.75;;;10.93;;
19167;SDS011;9716;53.114;18.040;2022-11-02T03:52:09;24.48;;;13.00;;
19167;SDS011;9716;53.114;18.040;2022-11-02T03:54:44;23.35;;;11.95;;
19167;SDS011;9716;53.114;18.040;2022-11-02T03:57:21;26.70;;;11.82;;
19167;SDS011;9716;53.114;18.040;2022-11-02T04:00:04;23.13;;;12.55;;
19167;SDS011;9716;53.114;18.040;2022-11-02T04:02:34;24.65;;;12.25;;
19167;SDS011;9716;53.114;18.040;2022-11-02T04:05:04;32.28;;;13.20;;
19167;SDS011;9716;53.114;18.040;2022-11-02T04:07:33;28.88;;;11.85;;
19167;SDS011;9716;53.114;18.040;2022-11-02T04:10:25;26.50;;;12.82;;
19167;SDS011;9716;53.114;18.040;2022-11-02T04:12:53;30.95;;;12.70;;
19167;SDS011;9716;53.114;18.040;2022-11-02T04:15:39;28.13;;;12.88;;
19167;SDS011;9716;53.114;18.040;2022-11-02T04:18:09;22.45;;;11.18;;
19167;SDS011;9716;53.114;18.040;2022-11-02T04:20:55;32.30;;;13.93;;
19167;SDS011;9716;53.114;18.040;2022-11-02T04:23:23;26.10;;;12.38;;
19167;SDS011;9716;53.114;18.040;2022-11-02T04:26:10;23.73;;;13.25;;
19167;SDS011;9716;53.114;18.040;2022-11-02T04:28:38;29.20;;;12.20;;
19167;SDS011;9716;53.114;18.040;2022-11-02T04:31:06;28.80;;;11.75;;
19167;SDS011;9716;53.114;18.040;2022-11-02T04:33:39;30.52;;;12.23;;
19167;SDS011;9716;53.114;18.040;2022-11-02T04:36:07;28.75;;;12.85;;
19167;SDS011;9716;53.114;18.040;2022-11-02T04:38:35;25.92;;;12.45;;
19167;SDS011;9716;53.114;18.040;2022-11-02T04:41:06;30.13;;;12.98;;
19167;SDS011;9716;53.114;18.040;2022-11-02T04:43:52;24.98;;;12.98;;
19167;SDS011;9716;53.114;18.040;2022-11-02T04:46:22;23.38;;;13.52;;
19167;SDS011;9716;53.114;18.040;2022-11-02T04:48:53;28.15;;;13.05;;
19167;SDS011;9716;53.114;18.040;2022-11-02T04:51:22;29.98;;;12.57;;
19167;SDS011;9716;53.114;18.040;2022-11-02T04:53:52;27.98;;;12.88;;
19167;SDS011;9716;53.114;18.040;2022-11-02T04:56:22;26.35;;;11.68;;
19167;SDS011;9716;53.114;18.040;2022-11-02T04:58:51;27.63;;;13.50;;
19167;SDS011;9716;53.114;18.040;2022-11-02T05:01:21;29.48;;;11.77;;
19167;SDS011;9716;53.114;18.040;2022-11-02T05:03:53;26.27;;;12.50;;
19167;SDS011;9716;53.114;18.040;2022-11-02T05:06:22;29.85;;;13.93;;
19167;SDS011;9716;53.114;18.040;2022-11-02T05:08:52;33.58;;;11.88;;
19167;SDS011;9716;53.114;18.040;2022-11-02T05:11:20;25.33;;;11.30;;
19167;SDS011;9716;53.114;18.040;2022-11-02T05:13:49;25.20;;;11.05;;
19167;SDS011;9716;53.114;18.040;2022-11-02T05:16:17;30.40;;;11.70;;
19167;SDS011;9716;53.114;18.040;2022-11-02T05:18:46;23.23;;;11.82;;
19167;SDS011;9716;53.114;18.040;2022-11-02T05:21:15;23.30;;;11.98;;
19167;SDS011;9716;53.114;18.040;2022-11-02T05:23:44;26.08;;;11.18;;
19167;SDS011;9716;53.114;18.040;2022-11-02T05:26:13;25.63;;;11.93;;
19167;SDS011;9716;53.114;18.040;2022-11-02T05:28:41;23.38;;;11.27;;
19167;SDS011;9716;53.114;18.040;2022-11-02T05:31:09;27.13;;;11.77;;
19167;SDS011;9716;53.114;18.040;2022-11-02T05:33:38;22.83;;;10.48;;
19167;SDS011;9716;53.114;18.040;2022-11-02T05:36:07;34.92;;;11.23;;
19167;SDS011;9716;53.114;18.040;2022-11-02T05:38:38;21.95;;;9.48;;
19167;SDS011;9716;53.114;18.040;2022-11-02T05:41:06;26.85;;;12.10;;
19167;SDS011;9716;53.114;18.040;2022-11-02T05:43:36;21.80;;;11.52;;
19167;SDS011;9716;53.114;18.040;2022-11-02T05:46:04;20.08;;;10.02;;
19167;SDS011;9716;53.114;18.040;2022-11-02T05:48:32;22.23;;;9.57;;
19167;SDS011;9716;53.114;18.040;2022-11-02T05:51:02;23.02;;;10.18;;
19167;SDS011;9716;53.114;18.040;2022-11-02T05:53:31;16.63;;;9.80;;
19167;SDS011;9716;53.114;18.040;2022-11-02T05:56:05;16.88;;;9.23;;
19167;SDS011;9716;53.114;18.040;2022-11-02T05:58:36;25.00;;;10.40;;
19167;SDS011;9716;53.114;18.040;2022-11-02T06:01:05;21.85;;;9.10;;
19167;SDS011;9716;53.114;18.040;2022-11-02T06:03:35;23.52;;;8.73;;
19167;SDS011;9716;53.114;18.040;2022-11-02T06:06:04;30.88;;;10.95;;
19167;SDS011;9716;53.114;18.040;2022-11-02T06:08:36;16.80;;;8.98;;
19167;SDS011;9716;53.114;18.040;2022-11-02T06:11:07;21.65;;;10.52;;
19167;SDS011;9716;53.114;18.040;2022-11-02T06:13:37;20.58;;;10.13;;
19167;SDS011;9716;53.114;18.040;2022-11-02T06:16:06;21.73;;;9.77;;
19167;SDS011;9716;53.114;18.040;2022-11-02T06:18:37;17.13;;;9.45;;
19167;SDS011;9716;53.114;18.040;2022-11-02T06:21:06;19.25;;;9.63;;
19167;SDS011;9716;53.114;18.040;2022-11-02T06:23:34;21.50;;;10.40;;
19167;SDS011;9716;53.114;18.040;2022-11-02T06:26:04;18.13;;;10.70;;
19167;SDS011;9716;53.114;18.040;2022-11-02T06:28:34;22.30;;;10.05;;
19167;SDS011;9716;53.114;18.040;2022-11-02T06:31:02;16.70;;;8.85;;
19167;SDS011;9716;53.114;18.040;2022-11-02T06:33:31;23.10;;;9.20;;
19167;SDS011;9716;53.114;18.040;2022-11-02T06:35:59;17.90;;;8.60;;
19167;SDS011;9716;53.114;18.040;2022-11-02T06:38:28;20.40;;;10.00;;
19167;SDS011;9716;53.114;18.040;2022-11-02T06:40:59;20.20;;;9.52;;
19167;SDS011;9716;53.114;18.040;2022-11-02T06:43:31;14.00;;;8.50;;
19167;SDS011;9716;53.114;18.040;2022-11-02T06:45:59;21.58;;;8.63;;
19167;SDS011;9716;53.114;18.040;2022-11-02T06:48:28;15.43;;;8.32;;
19167;SDS011;9716;53.114;18.040;2022-11-02T06:51:01;14.70;;;8.25;;
19167;SDS011;9716;53.114;18.040;2022-11-02T06:53:31;15.32;;;8.45;;
19167;SDS011;9716;53.114;18.040;2022-11-02T06:56:00;17.05;;;8.65;;
19167;SDS011;9716;53.114;18.040;2022-11-02T06:58:29;14.73;;;9.07;;
19167;SDS011;9716;53.114;18.040;2022-11-02T07:00:59;19.90;;;10.38;;
19167;SDS011;9716;53.114;18.040;2022-11-02T07:03:29;14.82;;;8.27;;
19167;SDS011;9716;53.114;18.040;2022-11-02T07:05:58;17.98;;;7.88;;
19167;SDS011;9716;53.114;18.040;2022-11-02T07:08:27;20.67;;;9.18;;
19167;SDS011;9716;53.114;18.040;2022-11-02T07:10:55;20.02;;;9.32;;
19167;SDS011;9716;53.114;18.040;2022-11-02T07:13:24;15.13;;;8.52;;
19167;SDS011;9716;53.114;18.040;2022-11-02T07:15:54;22.77;;;8.48;;
19167;SDS011;9716;53.114;18.040;2022-11-02T07:18:23;21.33;;;8.63;;
19167;SDS011;9716;53.114;18.040;2022-11-02T07:20:51;17.73;;;9.00;;
19167;SDS011;9716;53.114;18.040;2022-11-02T07:23:21;13.70;;;7.43;;
19167;SDS011;9716;53.114;18.040;2022-11-02T07:25:49;14.30;;;7.50;;
19167;SDS011;9716;53.114;18.040;2022-11-02T07:28:18;22.02;;;9.93;;
19167;SDS011;9716;53.114;18.040;2022-11-02T07:30:47;14.07;;;7.60;;
19167;SDS011;9716;53.114;18.040;2022-11-02T07:33:17;22.42;;;8.05;;
19167;SDS011;9716;53.114;18.040;2022-11-02T07:35:45;16.50;;;8.18;;
19167;SDS011;9716;53.114;18.040;2022-11-02T07:38:14;13.98;;;7.72;;
19167;SDS011;9716;53.114;18.040;2022-11-02T07:40:43;17.30;;;8.18;;
19167;SDS011;9716;53.114;18.040;2022-11-02T07:43:15;15.02;;;7.78;;
19167;SDS011;9716;53.114;18.040;2022-11-02T07:45:43;15.65;;;8.13;;
19167;SDS011;9716;53.114;18.040;2022-11-02T07:48:12;15.07;;;7.90;;
19167;SDS011;9716;53.114;18.040;2022-11-02T07:50:41;14.85;;;8.20;;
19167;SDS011;9716;53.114;18.040;2022-11-02T07:53:10;15.15;;;7.40;;
19167;SDS011;9716;53.114;18.040;2022-11-02T07:55:38;14.65;;;8.05;;
19167;SDS011;9716;53.114;18.040;2022-11-02T07:58:08;19.77;;;7.80;;
19167;SDS011;9716;53.114;18.040;2022-11-02T08:00:39;15.75;;;7.25;;
19167;SDS011;9716;53.114;18.040;2022-11-02T08:03:09;13.25;;;7.22;;
19167;SDS011;9716;53.114;18.040;2022-11-02T08:05:39;9.57;;;6.72;;
19167;SDS011;9716;53.114;18.040;2022-11-02T08:08:11;17.55;;;8.75;;
19167;SDS011;9716;53.114;18.040;2022-11-02T08:10:42;17.17;;;6.85;;
19167;SDS011;9716;53.114;18.040;2022-11-02T08:13:12;15.88;;;7.75;;
19167;SDS011;9716;53.114;18.040;2022-11-02T08:15:41;13.85;;;7.43;;
19167;SDS011;9716;53.114;18.040;2022-11-02T08:18:11;14.65;;;7.43;;
19167;SDS011;9716;53.114;18.040;2022-11-02T08:20:41;16.30;;;7.20;;
19167;SDS011;9716;53.114;18.040;2022-11-02T08:23:13;10.63;;;6.15;;
19167;SDS011;9716;53.114;18.040;2022-11-02T08:25:43;10.70;;;6.93;;
19167;SDS011;9716;53.114;18.040;2022-11-02T08:28:13;18.38;;;6.65;;
19167;SDS011;9716;53.114;18.040;2022-11-02T08:30:42;15.90;;;7.25;;
19167;SDS011;9716;53.114;18.040;2022-11-02T08:33:11;11.23;;;6.40;;
19167;SDS011;9716;53.114;18.040;2022-11-02T08:35:42;10.23;;;6.38;;
19167;SDS011;9716;53.114;18.040;2022-11-02T08:38:12;13.65;;;6.68;;
19167;SDS011;9716;53.114;18.040;2022-11-02T08:40:41;11.40;;;7.20;;
19167;SDS011;9716;53.114;18.040;2022-11-02T08:43:11;12.98;;;7.47;;
19167;SDS011;9716;53.114;18.040;2022-11-02T08:45:41;13.70;;;6.45;;
19167;SDS011;9716;53.114;18.040;2022-11-02T08:48:30;10.73;;;6.80;;
19167;SDS011;9716;53.114;18.040;2022-11-02T08:50:59;14.77;;;6.68;;
19167;SDS011;9716;53.114;18.040;2022-11-02T08:53:30;15.60;;;7.05;;
19167;SDS011;9716;53.114;18.040;2022-11-02T08:55:58;10.45;;;6.80;;
19167;SDS011;9716;53.114;18.040;2022-11-02T08:58:26;12.80;;;6.32;;
19167;SDS011;9716;53.114;18.040;2022-11-02T09:00:55;10.63;;;6.18;;
19167;SDS011;9716;53.114;18.040;2022-11-02T09:03:23;13.48;;;6.43;;
19167;SDS011;9716;53.114;18.040;2022-11-02T09:05:57;13.20;;;6.60;;
19167;SDS011;9716;53.114;18.040;2022-11-02T09:08:27;12.05;;;7.00;;
19167;SDS011;9716;53.114;18.040;2022-11-02T09:10:58;15.68;;;6.15;;
19167;SDS011;9716;53.114;18.040;2022-11-02T09:13:28;11.60;;;7.60;;
19167;SDS011;9716;53.114;18.040;2022-11-02T09:15:57;14.70;;;6.47;;
19167;SDS011;9716;53.114;18.040;2022-11-02T09:18:26;12.57;;;6.70;;
19167;SDS011;9716;53.114;18.040;2022-11-02T09:20:55;16.65;;;7.53;;
19167;SDS011;9716;53.114;18.040;2022-11-02T09:23:24;9.63;;;6.28;;
19167;SDS011;9716;53.114;18.040;2022-11-02T09:25:52;22.33;;;6.95;;
19167;SDS011;9716;53.114;18.040;2022-11-02T09:28:22;15.35;;;7.05;;
19167;SDS011;9716;53.114;18.040;2022-11-02T09:30:50;13.80;;;7.15;;
19167;SDS011;9716;53.114;18.040;2022-11-02T09:33:19;13.93;;;6.78;;
19167;SDS011;9716;53.114;18.040;2022-11-02T09:35:48;12.52;;;7.07;;
19167;SDS011;9716;53.114;18.040;2022-11-02T09:38:17;12.40;;;6.53;;
19167;SDS011;9716;53.114;18.040;2022-11-02T09:40:48;12.20;;;6.55;;
19167;SDS011;9716;53.114;18.040;2022-11-02T09:43:27;9.82;;;5.95;;
19167;SDS011;9716;53.114;18.040;2022-11-02T09:46:05;12.77;;;6.75;;
19167;SDS011;9716;53.114;18.040;2022-11-02T09:48:38;12.60;;;6.60;;
19167;SDS011;9716;53.114;18.040;2022-11-02T09:51:10;13.10;;;6.30;;
19167;SDS011;9716;53.114;18.040;2022-11-02T09:53:46;13.20;;;6.30;;
19167;SDS011;9716;53.114;18.040;2022-11-02T09:56:23;10.32;;;5.93;;
19167;SDS011;9716;53.114;18.040;2022-11-02T09:58:56;10.77;;;6.22;;
19167;SDS011;9716;53.114;18.040;2022-11-02T10:01:33;16.95;;;7.95;;
19167;SDS011;9716;53.114;18.040;2022-11-02T10:07:27;15.02;;;6.18;;
19167;SDS011;9716;53.114;18.040;2022-11-02T10:10:08;16.05;;;7.40;;
19167;SDS011;9716;53.114;18.040;2022-11-02T10:12:42;15.38;;;6.75;;
19167;SDS011;9716;53.114;18.040;2022-11-02T10:15:21;11.23;;;6.88;;
19167;SDS011;9716;53.114;18.040;2022-11-02T10:17:55;11.00;;;6.15;;
19167;SDS011;9716;53.114;18.040;2022-11-02T10:20:27;9.32;;;5.10;;
19167;SDS011;9716;53.114;18.040;2022-11-02T10:23:00;12.10;;;5.35;;
19167;SDS011;9716;53.114;18.040;2022-11-02T10:25:33;9.00;;;5.05;;
19167;SDS011;9716;53.114;18.040;2022-11-02T10:28:04;11.80;;;5.50;;
19167;SDS011;9716;53.114;18.040;2022-11-02T10:30:40;10.18;;;5.40;;
19167;SDS011;9716;53.114;18.040;2022-11-02T10:33:11;7.72;;;4.97;;
19167;SDS011;9716;53.114;18.040;2022-11-02T10:35:45;10.90;;;4.88;;
19167;SDS011;9716;53.114;18.040;2022-11-02T10:38:40;8.40;;;5.53;;
19167;SDS011;9716;53.114;18.040;2022-11-02T10:41:25;9.50;;;4.97;;
19167;SDS011;9716;53.114;18.040;2022-11-02T10:44:19;9.57;;;4.97;;
19167;SDS011;9716;53.114;18.040;2022-11-02T10:47:01;10.50;;;5.95;;
19167;SDS011;9716;53.114;18.040;2022-11-02T10:49:47;11.52;;;5.25;;
19167;SDS011;9716;53.114;18.040;2022-11-02T10:52:38;7.43;;;4.80;;
19167;SDS011;9716;53.114;18.040;2022-11-02T10:55:12;8.48;;;4.82;;
19167;SDS011;9716;53.114;18.040;2022-11-02T10:57:47;12.77;;;5.60;;
19167;SDS011;9716;53.114;18.040;2022-11-02T11:00:24;8.23;;;4.68;;
19167;SDS011;9716;53.114;18.040;2022-11-02T11:03:05;9.18;;;5.47;;
19167;SDS011;9716;53.114;18.040;2022-11-02T11:05:41;10.73;;;4.68;;
19167;SDS011;9716;53.114;18.040;2022-11-02T11:08:30;7.97;;;4.47;;
19167;SDS011;9716;53.114;18.040;2022-11-02T11:11:10;8.13;;;4.72;;
19167;SDS011;9716;53.114;18.040;2022-11-02T11:13:42;8.43;;;4.65;;
19167;SDS011;9716;53.114;18.040;2022-11-02T11:16:34;6.40;;;4.28;;
19167;SDS011;9716;53.114;18.040;2022-11-02T11:19:14;7.13;;;4.50;;
19167;SDS011;9716;53.114;18.040;2022-11-02T11:22:03;6.38;;;3.85;;
19167;SDS011;9716;53.114;18.040;2022-11-02T11:24:51;7.20;;;3.95;;
19167;SDS011;9716;53.114;18.040;2022-11-02T11:27:21;6.65;;;3.55;;
19167;SDS011;9716;53.114;18.040;2022-11-02T11:29:53;7.45;;;4.32;;
19167;SDS011;9716;53.114;18.040;2022-11-02T11:32:24;5.93;;;4.13;;
19167;SDS011;9716;53.114;18.040;2022-11-02T11:34:59;5.28;;;3.67;;
19167;SDS011;9716;53.114;18.040;2022-11-02T11:37:29;5.55;;;3.70;;
19167;SDS011;9716;53.114;18.040;2022-11-02T11:39:59;10.88;;;4.63;;
19167;SDS011;9716;53.114;18.040;2022-11-02T11:42:30;8.35;;;4.00;;
19167;SDS011;9716;53.114;18.040;2022-11-02T11:45:03;11.98;;;3.88;;
19167;SDS011;9716;53.114;18.040;2022-11-02T11:47:34;9.18;;;3.70;;
19167;SDS011;9716;53.114;18.040;2022-11-02T11:50:09;7.22;;;3.72;;
19167;SDS011;9716;53.114;18.040;2022-11-02T11:53:10;5.07;;;3.13;;
19167;SDS011;9716;53.114;18.040;2022-11-02T11:55:45;7.85;;;4.13;;
19167;SDS011;9716;53.114;18.040;2022-11-02T11:58:15;8.30;;;4.25;;
19167;SDS011;9716;53.114;18.040;2022-11-02T12:03:50;9.85;;;4.30;;
19167;SDS011;9716;53.114;18.040;2022-11-02T12:06:24;6.65;;;3.38;;
19167;SDS011;9716;53.114;18.040;2022-11-02T12:08:59;7.45;;;3.78;;
19167;SDS011;9716;53.114;18.040;2022-11-02T12:11:43;4.85;;;3.20;;
19167;SDS011;9716;53.114;18.040;2022-11-02T12:14:25;8.18;;;4.00;;
19167;SDS011;9716;53.114;18.040;2022-11-02T12:17:11;6.70;;;4.00;;
19167;SDS011;9716;53.114;18.040;2022-11-02T12:20:08;13.55;;;3.47;;
19167;SDS011;9716;53.114;18.040;2022-11-02T12:22:48;10.75;;;3.95;;
19167;SDS011;9716;53.114;18.040;2022-11-02T12:25:27;7.57;;;3.63;;
19167;SDS011;9716;53.114;18.040;2022-11-02T12:28:06;7.75;;;3.97;;
19167;SDS011;9716;53.114;18.040;2022-11-02T12:30:49;11.68;;;3.63;;
19167;SDS011;9716;53.114;18.040;2022-11-02T12:33:30;6.20;;;3.75;;
19167;SDS011;9716;53.114;18.040;2022-11-02T12:36:06;8.40;;;3.55;;
19167;SDS011;9716;53.114;18.040;2022-11-02T12:38:54;4.97;;;3.42;;
19167;SDS011;9716;53.114;18.040;2022-11-02T12:44:32;5.05;;;3.80;;
19167;SDS011;9716;53.114;18.040;2022-11-02T12:47:14;7.90;;;3.95;;
19167;SDS011;9716;53.114;18.040;2022-11-02T12:50:05;8.90;;;3.88;;
19167;SDS011;9716;53.114;18.040;2022-11-02T12:52:44;6.22;;;3.30;;
19167;SDS011;9716;53.114;18.040;2022-11-02T12:55:22;4.25;;;3.30;;
19167;SDS011;9716;53.114;18.040;2022-11-02T12:57:53;11.30;;;3.58;;
19167;SDS011;9716;53.114;18.040;2022-11-02T13:00:28;5.03;;;3.38;;
19167;SDS011;9716;53.114;18.040;2022-11-02T13:03:00;5.05;;;3.35;;
19167;SDS011;9716;53.114;18.040;2022-11-02T13:05:33;5.32;;;3.17;;
19167;SDS011;9716;53.114;18.040;2022-11-02T13:08:08;4.68;;;2.47;;
19167;SDS011;9716;53.114;18.040;2022-11-02T13:10:43;7.68;;;2.90;;
19167;SDS011;9716;53.114;18.040;2022-11-02T13:13:26;7.35;;;2.60;;
19167;SDS011;9716;53.114;18.040;2022-11-02T13:15:59;6.97;;;2.65;;
19167;SDS011;9716;53.114;18.040;2022-11-02T13:18:29;3.38;;;2.33;;
19167;SDS011;9716;53.114;18.040;2022-11-02T13:21:03;4.05;;;2.33;;
19167;SDS011;9716;53.114;18.040;2022-11-02T13:23:33;5.45;;;2.58;;
19167;SDS011;9716;53.114;18.040;2022-11-02T13:26:08;2.83;;;1.90;;
19167;SDS011;9716;53.114;18.040;2022-11-02T13:28:40;7.40;;;2.20;;
19167;SDS011;9716;53.114;18.040;2022-11-02T13:31:12;4.68;;;2.35;;
19167;SDS011;9716;53.114;18.040;2022-11-02T13:33:46;4.68;;;2.72;;
19167;SDS011;9716;53.114;18.040;2022-11-02T13:36:16;6.05;;;2.88;;
19167;SDS011;9716;53.114;18.040;2022-11-02T13:38:45;4.32;;;2.25;;
19167;SDS011;9716;53.114;18.040;2022-11-02T13:41:21;4.40;;;2.50;;
19167;SDS011;9716;53.114;18.040;2022-11-02T13:46:56;5.75;;;2.67;;
19167;SDS011;9716;53.114;18.040;2022-11-02T13:49:34;5.80;;;2.72;;
19167;SDS011;9716;53.114;18.040;2022-11-02T13:52:08;5.78;;;2.20;;
19167;SDS011;9716;53.114;18.040;2022-11-02T13:54:40;3.90;;;2.28;;
19167;SDS011;9716;53.114;18.040;2022-11-02T13:57:22;8.38;;;2.75;;
19167;SDS011;9716;53.114;18.040;2022-11-02T13:59:58;6.15;;;1.88;;
19167;SDS011;9716;53.114;18.040;2022-11-02T14:02:27;6.13;;;2.00;;
19167;SDS011;9716;53.114;18.040;2022-11-02T14:05:00;5.47;;;2.15;;
19167;SDS011;9716;53.114;18.040;2022-11-02T14:07:31;13.65;;;2.20;;
19167;SDS011;9716;53.114;18.040;2022-11-02T14:10:03;7.60;;;2.38;;
19167;SDS011;9716;53.114;18.040;2022-11-02T14:12:40;13.65;;;2.40;;
19167;SDS011;9716;53.114;18.040;2022-11-02T14:18:25;8.88;;;2.60;;
19167;SDS011;9716;53.114;18.040;2022-11-02T14:20:57;4.00;;;1.85;;
19167;SDS011;9716;53.114;18.040;2022-11-02T14:23:35;8.90;;;2.15;;
19167;SDS011;9716;53.114;18.040;2022-11-02T14:29:03;5.35;;;1.98;;
19167;SDS011;9716;53.114;18.040;2022-11-02T14:31:56;1.92;;;1.50;;
19167;SDS011;9716;53.114;18.040;2022-11-02T14:34:33;9.55;;;2.40;;
19167;SDS011;9716;53.114;18.040;2022-11-02T14:37:29;7.13;;;2.53;;
19167;SDS011;9716;53.114;18.040;2022-11-02T14:40:11;8.43;;;2.50;;
19167;SDS011;9716;53.114;18.040;2022-11-02T14:45:44;4.20;;;1.70;;
19167;SDS011;9716;53.114;18.040;2022-11-02T14:48:22;7.63;;;3.50;;
19167;SDS011;9716;53.114;18.040;2022-11-02T14:50:56;6.07;;;2.42;;
19167;SDS011;9716;53.114;18.040;2022-11-02T14:53:31;4.47;;;2.38;;
19167;SDS011;9716;53.114;18.040;2022-11-02T14:56:02;3.05;;;2.40;;
19167;SDS011;9716;53.114;18.040;2022-11-02T14:58:31;3.75;;;2.20;;
19167;SDS011;9716;53.114;18.040;2022-11-02T15:01:04;4.20;;;2.40;;
19167;SDS011;9716;53.114;18.040;2022-11-02T15:03:38;3.60;;;2.10;;
19167;SDS011;9716;53.114;18.040;2022-11-02T15:06:13;5.38;;;2.80;;
19167;SDS011;9716;53.114;18.040;2022-11-02T15:08:49;3.72;;;2.00;;
19167;SDS011;9716;53.114;18.040;2022-11-02T15:14:30;4.15;;;2.22;;
19167;SDS011;9716;53.114;18.040;2022-11-02T15:17:01;11.23;;;2.30;;
19167;SDS011;9716;53.114;18.040;2022-11-02T15:20:18;3.95;;;2.50;;
19167;SDS011;9716;53.114;18.040;2022-11-02T15:22:53;3.55;;;2.10;;
19167;SDS011;9716;53.114;18.040;2022-11-02T15:25:27;9.82;;;2.20;;
19167;SDS011;9716;53.114;18.040;2022-11-02T15:28:04;2.25;;;1.80;;
19167;SDS011;9716;53.114;18.040;2022-11-02T15:30:37;3.75;;;2.38;;
19167;SDS011;9716;53.114;18.040;2022-11-02T15:33:15;15.52;;;3.03;;
19167;SDS011;9716;53.114;18.040;2022-11-02T15:35:47;4.00;;;2.42;;